createdAt,value
2022-09-22T00:00:25.620Z,10.84
2022-09-22T00:05:28.010Z,10.50
2022-09-22T00:10:30.361Z,10.97
2022-09-22T00:15:32.714Z,11.23
2022-09-22T00:20:38.421Z,11.02
2022-09-22T00:25:41.423Z,10.86
2022-09-22T00:30:43.812Z,10.84
2022-09-22T00:35:56.083Z,10.61
2022-09-22T00:41:00.910Z,10.28
2022-09-22T00:46:10.100Z,10.18
2022-09-22T00:51:15.163Z,10.73
2022-09-22T00:56:38.300Z,10.64
2022-09-22T01:01:41.040Z,10.77
2022-09-22T01:06:45.541Z,10.60
2022-09-22T01:11:48.075Z,10.80
2022-09-22T01:17:28.568Z,10.92
2022-09-22T01:22:39.095Z,10.67
2022-09-22T01:27:50.349Z,10.85
2022-09-22T01:33:11.302Z,10.88
2022-09-22T01:38:14.239Z,10.65
2022-09-22T01:43:55.106Z,9.77
2022-09-22T01:49:00.952Z,9.57
2022-09-22T01:54:18.855Z,10.23
2022-09-22T01:59:28.235Z,10.06
2022-09-22T02:04:33.025Z,10.14
2022-09-22T02:09:36.175Z,10.59
2022-09-22T02:14:38.875Z,10.42
2022-09-22T02:19:43.865Z,10.59
2022-09-22T02:24:47.015Z,10.06
2022-09-22T02:29:59.685Z,10.06
2022-09-22T02:35:03.461Z,10.33
2022-09-22T02:40:14.534Z,10.36
2022-09-22T02:45:34.583Z,10.13
2022-09-22T02:50:38.517Z,10.27
2022-09-22T02:55:41.761Z,10.73
2022-09-22T03:00:45.364Z,10.80
2022-09-22T03:05:47.789Z,9.97
2022-09-22T03:10:50.165Z,10.00
2022-09-22T03:15:52.539Z,10.20
2022-09-22T03:20:55.248Z,9.50
2022-09-22T03:25:57.915Z,9.90
2022-09-22T03:31:00.417Z,10.49
2022-09-22T03:36:02.976Z,10.63
2022-09-22T03:41:05.469Z,9.95
2022-09-22T03:46:07.967Z,9.57
2022-09-22T03:51:10.573Z,10.22
2022-09-22T03:56:14.943Z,9.62
2022-09-22T04:01:17.366Z,9.92
2022-09-22T04:06:19.745Z,9.90
2022-09-22T04:11:23.652Z,10.20
2022-09-22T04:16:27.414Z,10.35
2022-09-22T04:21:29.924Z,10.50
2022-09-22T04:26:32.280Z,9.93
2022-09-22T04:31:34.693Z,10.45
2022-09-22T04:36:37.036Z,9.86
2022-09-22T04:41:39.370Z,9.75
2022-09-22T04:46:46.082Z,9.52
2022-09-22T04:51:48.752Z,9.61
2022-09-22T04:56:51.117Z,9.76
2022-09-22T05:01:53.667Z,9.66
2022-09-22T05:06:56.099Z,9.77
2022-09-22T05:11:59.690Z,9.85
2022-09-22T05:17:02.602Z,10.18
2022-09-22T05:22:05.045Z,10.21
2022-09-22T05:27:07.802Z,9.70
2022-09-22T05:32:10.266Z,9.66
2022-09-22T05:37:12.672Z,9.82
2022-09-22T05:42:15.022Z,10.26
2022-09-22T05:47:17.407Z,10.22
2022-09-22T05:52:19.752Z,10.07
2022-09-22T05:57:25.514Z,9.81
2022-09-22T06:02:27.983Z,9.98
2022-09-22T06:07:30.631Z,10.21
2022-09-22T06:12:32.971Z,10.71
2022-09-22T06:17:35.414Z,10.96
2022-09-22T06:22:37.772Z,11.07
2022-09-22T06:27:40.296Z,10.90
2022-09-22T06:32:43.919Z,11.03
2022-09-22T06:37:48.684Z,11.22
2022-09-22T06:42:56.307Z,11.48
2022-09-22T06:48:05.204Z,12.13
2022-09-22T06:53:11.980Z,12.92
2022-09-22T06:58:15.659Z,13.51
2022-09-22T07:03:20.845Z,13.87
2022-09-22T07:08:24.507Z,14.20
2022-09-22T07:13:30.011Z,14.92
2022-09-22T07:18:33.533Z,15.64
2022-09-22T07:23:36.787Z,16.08
2022-09-22T07:28:39.654Z,16.62
2022-09-22T07:33:44.443Z,16.99
2022-09-22T07:38:49.730Z,17.33
2022-09-22T07:43:56.196Z,17.46
2022-09-22T07:48:59.221Z,16.47
2022-09-22T07:54:08.013Z,16.80
2022-09-22T07:59:12.849Z,17.43
2022-09-22T08:04:22.723Z,18.58
2022-09-22T08:09:26.478Z,19.38
2022-09-22T08:14:29.913Z,19.76
2022-09-22T08:19:35.294Z,20.48
2022-09-22T08:24:37.684Z,21.33
2022-09-22T08:29:40.058Z,22.21
2022-09-22T08:34:42.483Z,22.94
2022-09-22T08:39:44.971Z,23.37
2022-09-22T08:44:57.180Z,23.94
2022-09-22T08:50:18.241Z,24.47
2022-09-22T08:55:23.383Z,25.10
2022-09-22T09:00:45.510Z,25.58
2022-09-22T09:06:23.559Z,25.79
2022-09-22T09:11:46.685Z,24.51
2022-09-22T09:16:58.354Z,20.55
2022-09-22T09:22:12.129Z,18.70
2022-09-22T09:27:21.736Z,18.45
2022-09-22T09:33:11.470Z,17.97
2022-09-22T09:38:17.390Z,17.83
2022-09-22T09:43:21.476Z,18.84
2022-09-22T09:48:40.921Z,18.10
2022-09-22T09:53:47.641Z,17.40
2022-09-22T09:59:23.518Z,17.61
2022-09-22T10:04:38.083Z,18.23
2022-09-22T10:09:41.289Z,18.82
2022-09-22T10:14:51.731Z,18.01
2022-09-22T10:20:14.132Z,17.48
2022-09-22T10:25:33.167Z,17.66
2022-09-22T10:30:39.633Z,18.14
2022-09-22T10:35:53.424Z,18.73
2022-09-22T10:41:10.806Z,19.88
2022-09-22T10:46:49.991Z,23.58
2022-09-22T10:52:24.368Z,24.86
2022-09-22T10:57:54.444Z,27.84
2022-09-22T11:03:03.149Z,28.91
2022-09-22T11:08:32.142Z,31.21
2022-09-22T11:13:37.327Z,31.54
2022-09-22T11:19:02.783Z,30.65
2022-09-22T11:24:37.737Z,32.20
2022-09-22T11:29:58.007Z,32.55
2022-09-22T11:35:12.408Z,32.21
2022-09-22T11:40:44.039Z,30.23
2022-09-22T11:45:58.161Z,24.04
2022-09-22T11:51:10.572Z,23.85
2022-09-22T11:56:35.677Z,24.11
2022-09-22T12:01:40.567Z,21.93
2022-09-22T12:06:49.427Z,22.09
2022-09-22T12:11:54.749Z,22.23
2022-09-22T12:17:28.006Z,23.03
2022-09-22T12:22:43.142Z,22.47
2022-09-22T12:27:46.213Z,22.49
2022-09-22T12:32:50.594Z,20.64
2022-09-22T12:37:55.156Z,20.19
2022-09-22T12:42:59.428Z,21.71
2022-09-22T12:48:10.899Z,20.94
2022-09-22T12:53:22.433Z,20.26
2022-09-22T12:58:30.796Z,19.54
2022-09-22T13:03:37.125Z,19.68
2022-09-22T13:08:39.473Z,19.38
2022-09-22T13:13:47.261Z,20.81
2022-09-22T13:18:52.891Z,19.97
2022-09-22T13:23:55.242Z,19.84
2022-09-22T13:29:12.293Z,20.39
2022-09-22T13:34:35.338Z,25.73
2022-09-22T13:39:47.341Z,28.41
2022-09-22T13:45:00.398Z,30.09
2022-09-22T13:50:12.929Z,30.86
2022-09-22T13:55:35.448Z,30.94
2022-09-22T14:01:11.409Z,29.84
2022-09-22T14:06:20.161Z,31.19
2022-09-22T14:11:30.077Z,31.63
2022-09-22T14:16:34.162Z,31.47
2022-09-22T14:22:13.689Z,29.69
2022-09-22T14:27:39.523Z,28.94
2022-09-22T14:32:55.120Z,30.69
2022-09-22T14:38:06.317Z,28.73
2022-09-22T14:43:33.345Z,25.55
2022-09-22T14:48:38.985Z,23.33
2022-09-22T14:53:46.635Z,22.16
2022-09-22T14:58:54.125Z,21.61
2022-09-22T15:04:04.750Z,20.26
2022-09-22T15:09:12.892Z,20.45
2022-09-22T15:14:34.422Z,22.41
2022-09-22T15:19:37.667Z,20.96
2022-09-22T15:24:43.072Z,19.79
2022-09-22T15:29:46.347Z,19.38
2022-09-22T15:34:48.851Z,20.00
2022-09-22T15:39:51.319Z,20.35
2022-09-22T15:44:54.008Z,19.83
2022-09-22T15:49:56.969Z,19.42
2022-09-22T15:54:59.619Z,18.80
2022-09-22T16:00:02.383Z,18.65
2022-09-22T16:05:15.419Z,18.66
2022-09-22T16:10:23.893Z,18.84
2022-09-22T16:15:26.295Z,18.83
2022-09-22T16:20:29.483Z,18.76
2022-09-22T16:25:32.505Z,18.84
2022-09-22T16:30:46.964Z,18.80
2022-09-22T16:35:52.525Z,18.69
2022-09-22T16:41:17.909Z,18.58
2022-09-22T16:46:27.049Z,18.59
2022-09-22T16:51:30.138Z,18.61
2022-09-22T16:56:37.846Z,18.40
2022-09-22T17:01:40.435Z,18.14
2022-09-22T17:06:51.795Z,18.08
2022-09-22T17:11:54.256Z,17.98
2022-09-22T17:16:58.256Z,17.93
2022-09-22T17:22:00.956Z,17.99
2022-09-22T17:27:03.456Z,17.48
2022-09-22T17:32:08.080Z,17.16
2022-09-22T17:37:14.192Z,16.93
2022-09-22T17:42:16.824Z,16.74
2022-09-22T17:47:37.926Z,16.44
2022-09-22T17:52:59.182Z,16.20
2022-09-22T17:58:01.626Z,16.16
2022-09-22T18:03:04.615Z,16.22
2022-09-22T18:08:07.062Z,16.27
2022-09-22T18:13:09.691Z,16.79
2022-09-22T18:18:12.048Z,16.62
2022-09-22T18:23:14.474Z,16.23
2022-09-22T18:28:22.316Z,16.11
2022-09-22T18:33:24.668Z,16.97
2022-09-22T18:38:29.997Z,16.90
2022-09-22T18:43:32.525Z,16.61
2022-09-22T18:48:34.895Z,16.48
2022-09-22T18:53:37.967Z,16.25
2022-09-22T18:58:40.469Z,16.89
2022-09-22T19:03:42.837Z,16.87
2022-09-22T19:08:45.570Z,16.36
2022-09-22T19:13:48.372Z,15.90
2022-09-22T19:18:51.235Z,16.06
2022-09-22T19:23:53.736Z,16.21
2022-09-22T19:28:56.224Z,16.31
2022-09-22T19:33:59.757Z,16.92
2022-09-22T19:39:02.251Z,17.09
2022-09-22T19:44:05.643Z,17.15
2022-09-22T19:49:08.242Z,17.02
2022-09-22T19:54:11.249Z,17.09
2022-09-22T19:59:13.911Z,17.17
2022-09-22T20:04:19.873Z,17.29
2022-09-22T20:09:22.322Z,16.75
2022-09-22T20:14:26.907Z,16.61
2022-09-22T20:19:31.543Z,15.21
2022-09-22T20:24:34.090Z,14.74
2022-09-22T20:29:36.509Z,14.40
2022-09-22T20:34:39.373Z,14.09
2022-09-22T20:39:42.548Z,13.89
2022-09-22T20:44:45.260Z,13.88
2022-09-22T20:49:51.531Z,13.74
2022-09-22T20:54:54.285Z,13.55
2022-09-22T20:59:57.200Z,13.54
2022-09-22T21:04:59.668Z,13.47
2022-09-22T21:10:20.897Z,13.43
2022-09-22T21:15:23.326Z,13.61
2022-09-22T21:20:27.184Z,13.19
2022-09-22T21:25:30.520Z,13.37
2022-09-22T21:30:33.060Z,13.48
2022-09-22T21:35:35.409Z,13.77
2022-09-22T21:40:37.780Z,13.49
2022-09-22T21:45:40.355Z,13.20
2022-09-22T21:50:42.744Z,13.33
2022-09-22T21:55:45.105Z,12.98
2022-09-22T22:00:52.075Z,13.15
2022-09-22T22:06:09.148Z,13.12
2022-09-22T22:11:22.890Z,13.41
2022-09-22T22:16:30.354Z,13.00
2022-09-22T22:21:35.919Z,12.58
2022-09-22T22:26:38.474Z,12.52
2022-09-22T22:31:41.617Z,12.56
2022-09-22T22:36:44.604Z,12.44
2022-09-22T22:41:48.850Z,12.35
2022-09-22T22:46:51.261Z,12.30
2022-09-22T22:51:53.816Z,12.29
2022-09-22T22:56:56.249Z,12.29
2022-09-22T23:01:58.575Z,12.74
2022-09-22T23:07:01.438Z,12.98
2022-09-22T23:12:03.848Z,13.19
2022-09-22T23:17:08.197Z,13.42
2022-09-22T23:22:10.586Z,13.57
2022-09-22T23:27:13.203Z,13.53
2022-09-22T23:32:15.665Z,13.61
2022-09-22T23:37:18.006Z,13.22
2022-09-22T23:42:20.413Z,13.15
2022-09-22T23:47:22.772Z,12.96
2022-09-22T23:52:25.841Z,12.82
2022-09-22T23:57:28.400Z,13.16
